Time;durP1;ratioP1;P1;durP2;ratioP2;P2;SDS_P1;SDS_P2;PMS_P1;PMS_P2;Temp;Humidity;BMP_temperature;BMP_pressure;BME280_temperature;BME280_humidity;BME280_pressure;Samples;Min_cycle;Max_cycle;Signal;HPM_P1;HPM_P2
2023/06/29 00:01:54;;;;;;;62.75;26.42;;;;;;;;;;4991974;28;20069;-89
2023/06/29 00:04:21;;;;;;;58.65;27.45;;;;;;;;;;4984682;28;20085;-88
2023/06/29 00:06:57;;;;;;;56.13;27.13;;;;;;;;;;4994413;28;20049;-89
2023/06/29 00:09:32;;;;;;;53.35;27.52;;;;;;;;;;4965834;28;20118;-89
2023/06/29 00:12:00;;;;;;;55.40;27.23;;;;;;;;;;4963659;28;20049;-88
2023/06/29 00:14:26;;;;;;;59.97;28.35;;;;;;;;;;4965167;28;20065;-89
2023/06/29 00:19:39;;;;;;;56.33;26.90;;;;;;;;;;4951325;28;20046;-89
2023/06/29 00:22:26;;;;;;;54.13;27.73;;;;;;;;;;4994295;28;20494;-88
2023/06/29 00:24:56;;;;;;;58.35;29.35;;;;;;;;;;4958976;28;20037;-88
2023/06/29 00:27:23;;;;;;;56.97;28.73;;;;;;;;;;4964824;28;20030;-89
2023/06/29 00:29:49;;;;;;;60.40;28.40;;;;;;;;;;4980709;28;20026;-89
2023/06/29 00:32:15;;;;;;;52.08;27.05;;;;;;;;;;4964839;28;20031;-88
2023/06/29 00:34:58;;;;;;;56.65;27.98;;;;;;;;;;4966138;28;20042;-89
2023/06/29 00:37:24;;;;;;;54.22;28.02;;;;;;;;;;4982963;28;20030;-90
2023/06/29 00:40:05;;;;;;;60.40;27.73;;;;;;;;;;4981221;28;20117;-89
2023/06/29 00:42:31;;;;;;;67.38;31.42;;;;;;;;;;4977845;28;20069;-89
2023/06/29 00:44:58;;;;;;;58.83;28.13;;;;;;;;;;4976040;28;20097;-89
2023/06/29 00:47:37;;;;;;;61.40;28.23;;;;;;;;;;4995932;28;20041;-87
2023/06/29 00:50:07;;;;;;;61.00;27.42;;;;;;;;;;5014543;28;20108;-89
2023/06/29 00:52:34;;;;;;;59.85;28.63;;;;;;;;;;5000806;28;20547;-88
2023/06/29 00:55:00;;;;;;;59.78;29.80;;;;;;;;;;4998435;28;20037;-89
2023/06/29 00:57:31;;;;;;;64.90;27.90;;;;;;;;;;4983965;28;20030;-88
2023/06/29 01:00:00;;;;;;;64.32;29.85;;;;;;;;;;4986243;28;20037;-88
2023/06/29 01:02:30;;;;;;;60.55;29.02;;;;;;;;;;4976739;28;20154;-88
2023/06/29 01:05:03;;;;;;;56.15;28.27;;;;;;;;;;5007661;28;20038;-88
2023/06/29 01:07:52;;;;;;;60.83;28.40;;;;;;;;;;4978906;28;20386;-88
2023/06/29 01:10:24;;;;;;;58.58;28.38;;;;;;;;;;5006085;28;20524;-90
2023/06/29 01:12:52;;;;;;;63.20;28.73;;;;;;;;;;4999287;28;20036;-90
2023/06/29 01:15:22;;;;;;;60.40;28.30;;;;;;;;;;4980483;28;20409;-89
2023/06/29 01:17:50;;;;;;;58.13;28.25;;;;;;;;;;4998842;28;20067;-88
2023/06/29 01:20:21;;;;;;;69.55;30.27;;;;;;;;;;4986721;28;20048;-89
2023/06/29 01:22:50;;;;;;;60.33;28.92;;;;;;;;;;4977529;28;20030;-89
2023/06/29 01:25:16;;;;;;;64.70;29.17;;;;;;;;;;5009951;28;20111;-89
2023/06/29 01:27:49;;;;;;;54.28;27.83;;;;;;;;;;4986601;28;20042;-88
2023/06/29 01:30:39;;;;;;;55.33;27.88;;;;;;;;;;4999215;28;20464;-89
2023/06/29 01:33:06;;;;;;;65.30;28.08;;;;;;;;;;5000800;28;20058;-89
2023/06/29 01:35:39;;;;;;;64.63;31.42;;;;;;;;;;4980151;28;20073;-89
2023/06/29 01:38:25;;;;;;;59.80;28.08;;;;;;;;;;4975051;28;20065;-89
2023/06/29 01:40:51;;;;;;;;;;;;;;;;;;4993630;28;20061;-89
2023/06/29 01:43:21;;;;;;;62.30;27.65;;;;;;;;;;5001732;28;19921;-89
2023/06/29 01:45:47;;;;;;;61.33;29.55;;;;;;;;;;4982183;28;20043;-88
2023/06/29 01:48:14;;;;;;;61.60;29.45;;;;;;;;;;5002051;28;20608;-88
2023/06/29 01:50:40;;;;;;;62.13;28.10;;;;;;;;;;5004127;28;20060;-88
2023/06/29 01:53:07;;;;;;;58.40;28.67;;;;;;;;;;4983626;28;20037;-89
2023/06/29 01:55:34;;;;;;;63.40;29.40;;;;;;;;;;4982471;28;20045;-89
2023/06/29 01:58:10;;;;;;;58.55;27.98;;;;;;;;;;4985602;28;20069;-89
2023/06/29 02:00:36;;;;;;;;;;;;;;;;;;4991674;28;20040;-88
2023/06/29 02:03:02;;;;;;;;;;;;;;;;;;5009347;28;19924;-88
2023/06/29 02:05:32;;;;;;;59.45;27.92;;;;;;;;;;5003874;28;19949;-89
2023/06/29 02:08:05;;;;;;;56.25;28.15;;;;;;;;;;4977408;28;20022;-88
2023/06/29 02:10:37;;;;;;;63.17;27.23;;;;;;;;;;5006134;28;20069;-88
2023/06/29 02:13:03;;;;;;;55.55;28.45;;;;;;;;;;4980693;28;20034;-89
2023/06/29 02:15:30;;;;;;;57.45;27.92;;;;;;;;;;4977421;28;20085;-88
2023/06/29 02:18:07;;;;;;;60.35;29.10;;;;;;;;;;5011601;28;20210;-88
2023/06/29 02:20:35;;;;;;;57.40;27.83;;;;;;;;;;4984629;28;20641;-88
2023/06/29 02:23:02;;;;;;;57.67;27.65;;;;;;;;;;4974300;28;20433;-88
2023/06/29 02:25:28;;;;;;;65.20;27.13;;;;;;;;;;4981873;28;20053;-88
2023/06/29 02:27:56;;;;;;;62.47;27.85;;;;;;;;;;5008050;28;20030;-88
2023/06/29 02:30:23;;;;;;;55.85;26.98;;;;;;;;;;4983216;28;20034;-89
2023/06/29 02:32:50;;;;;;;55.40;27.73;;;;;;;;;;5004026;28;20486;-88
2023/06/29 02:35:16;;;;;;;56.00;28.75;;;;;;;;;;4980053;28;20040;-88
2023/06/29 02:37:51;;;;;;;67.28;28.75;;;;;;;;;;4976158;28;20025;-88
2023/06/29 02:40:17;;;;;;;61.72;26.92;;;;;;;;;;5010015;28;20446;-88
2023/06/29 02:42:44;;;;;;;57.47;28.02;;;;;;;;;;4973128;28;20068;-88
2023/06/29 02:45:10;;;;;;;56.70;28.95;;;;;;;;;;4988031;28;20482;-87
2023/06/29 02:47:38;;;;;;;66.05;30.90;;;;;;;;;;4972777;28;20046;-89
2023/06/29 02:50:16;;;;;;;64.80;32.40;;;;;;;;;;5014527;28;20480;-89
2023/06/29 02:52:43;;;;;;;61.90;29.65;;;;;;;;;;5003052;28;20095;-89
2023/06/29 02:55:09;;;;;;;60.50;28.48;;;;;;;;;;4975467;28;20042;-89
2023/06/29 02:57:36;;;;;;;61.33;30.50;;;;;;;;;;4992473;28;20087;-89
2023/06/29 03:00:03;;;;;;;62.20;28.75;;;;;;;;;;4969409;28;20073;-89
2023/06/29 03:02:31;;;;;;;60.38;29.35;;;;;;;;;;5009683;28;20037;-88
2023/06/29 03:04:59;;;;;;;59.80;28.15;;;;;;;;;;4972786;28;20521;-88
2023/06/29 03:07:26;;;;;;;63.22;29.77;;;;;;;;;;4977522;28;20053;-89
2023/06/29 03:09:53;;;;;;;57.55;27.27;;;;;;;;;;4961596;28;20065;-89
2023/06/29 03:12:22;;;;;;;65.03;30.33;;;;;;;;;;4972223;28;20062;-89
2023/06/29 03:14:48;;;;;;;60.15;28.73;;;;;;;;;;4993430;28;20040;-88
2023/06/29 03:17:14;;;;;;;59.25;28.25;;;;;;;;;;4991746;28;20034;-89
2023/06/29 03:19:41;;;;;;;58.30;26.08;;;;;;;;;;4970905;28;20034;-87
2023/06/29 03:22:08;;;;;;;65.88;29.00;;;;;;;;;;5007941;28;20185;-88
2023/06/29 03:24:34;;;;;;;64.30;28.83;;;;;;;;;;4987227;28;20036;-87
2023/06/29 03:27:00;;;;;;;59.08;26.92;;;;;;;;;;4975106;28;20121;-88
2023/06/29 03:29:26;;;;;;;58.60;27.63;;;;;;;;;;4979508;28;20085;-88
2023/06/29 03:31:52;;;;;;;54.75;26.15;;;;;;;;;;4994097;28;20053;-88
2023/06/29 03:34:19;;;;;;;58.90;28.70;;;;;;;;;;4977988;28;20038;-88
2023/06/29 03:36:45;;;;;;;61.80;26.15;;;;;;;;;;4978524;28;20049;-88
2023/06/29 03:39:11;;;;;;;55.67;27.08;;;;;;;;;;4967855;28;20046;-88
2023/06/29 03:41:37;;;;;;;50.08;27.10;;;;;;;;;;4971641;28;20030;-89
2023/06/29 03:44:04;;;;;;;58.15;26.83;;;;;;;;;;4990794;28;20040;-87
2023/06/29 03:46:30;;;;;;;51.22;24.10;;;;;;;;;;4989225;28;20041;-88
2023/06/29 03:48:56;;;;;;;51.97;26.33;;;;;;;;;;4970317;28;20317;-88
2023/06/29 03:51:22;;;;;;;51.45;24.60;;;;;;;;;;4970180;28;20042;-88
2023/06/29 03:53:48;;;;;;;52.72;25.38;;;;;;;;;;4980958;28;20022;-89
2023/06/29 03:56:14;;;;;;;49.65;25.70;;;;;;;;;;4984353;28;20556;-88
2023/06/29 03:58:40;;;;;;;48.08;23.17;;;;;;;;;;4976169;28;20124;-87
2023/06/29 04:01:07;;;;;;;49.17;24.17;;;;;;;;;;4994098;28;20191;-87
2023/06/29 04:03:33;;;;;;;47.97;24.33;;;;;;;;;;4976448;28;20049;-87
2023/06/29 04:05:59;;;;;;;46.67;24.52;;;;;;;;;;4995450;28;20223;-87
2023/06/29 04:08:26;;;;;;;46.28;24.38;;;;;;;;;;4992354;28;20111;-86
2023/06/29 04:10:53;;;;;;;59.67;25.67;;;;;;;;;;4980451;28;20172;-88
2023/06/29 04:13:19;;;;;;;53.25;26.65;;;;;;;;;;4976452;28;20038;-88
2023/06/29 04:15:45;;;;;;;54.92;26.33;;;;;;;;;;4979506;28;20034;-87
2023/06/29 04:18:11;;;;;;;51.65;24.63;;;;;;;;;;4972193;28;20049;-88
2023/06/29 04:20:37;;;;;;;56.72;26.55;;;;;;;;;;4993118;28;20537;-88
2023/06/29 04:23:03;;;;;;;55.00;24.42;;;;;;;;;;5003876;28;20026;-87
2023/06/29 04:25:29;;;;;;;51.47;24.70;;;;;;;;;;4992847;28;20026;-87
2023/06/29 04:28:01;;;;;;;49.83;24.67;;;;;;;;;;4989277;28;20484;-87
2023/06/29 04:30:27;;;;;;;53.85;24.77;;;;;;;;;;4993033;28;20116;-88
2023/06/29 04:32:53;;;;;;;48.88;24.85;;;;;;;;;;4979800;28;20141;-88
2023/06/29 04:35:19;;;;;;;46.63;23.30;;;;;;;;;;4984473;28;20038;-88
2023/06/29 04:37:45;;;;;;;45.03;23.77;;;;;;;;;;4994849;28;20449;-87
2023/06/29 04:40:21;;;;;;;48.35;22.92;;;;;;;;;;4991131;28;20029;-88
2023/06/29 04:42:48;;;;;;;48.20;22.90;;;;;;;;;;4978017;28;20099;-89
2023/06/29 04:45:18;;;;;;;44.42;22.85;;;;;;;;;;4978895;28;20630;-87
2023/06/29 04:47:57;;;;;;;49.33;22.80;;;;;;;;;;4995195;28;20068;-88
2023/06/29 04:50:31;;;;;;;42.00;22.58;;;;;;;;;;4984278;28;20394;-88
2023/06/29 04:53:08;;;;;;;36.20;19.65;;;;;;;;;;4998719;28;20038;-89
2023/06/29 04:55:35;;;;;;;43.75;22.38;;;;;;;;;;4994335;28;20087;-88
2023/06/29 04:58:18;;;;;;;41.80;20.00;;;;;;;;;;5014017;28;20041;-89
2023/06/29 05:00:44;;;;;;;36.97;20.08;;;;;;;;;;4976271;28;20508;-88
2023/06/29 05:03:32;;;;;;;44.38;20.63;;;;;;;;;;4977141;28;20038;-87
2023/06/29 05:06:21;;;;;;;;;;;;;;;;;;;;;
2023/06/29 05:09:10;;;;;;;37.45;19.25;;;;;;;;;;5004273;28;20142;-88
2023/06/29 05:12:07;;;;;;;37.85;19.45;;;;;;;;;;4994980;28;20045;-87
2023/06/29 05:14:34;;;;;;;35.63;19.20;;;;;;;;;;4981676;28;20029;-86
2023/06/29 05:17:00;;;;;;;37.08;19.38;;;;;;;;;;4987020;28;20484;-86
2023/06/29 05:19:40;;;;;;;;;;;;;;;;;;;;;
2023/06/29 05:22:08;;;;;;;44.78;19.58;;;;;;;;;;4991394;28;20168;-88
2023/06/29 05:24:37;;;;;;;43.65;19.67;;;;;;;;;;5005351;28;20034;-87
2023/06/29 05:27:48;;;;;;;52.92;19.92;;;;;;;;;;5006507;28;20035;-87
2023/06/29 05:29:56;;;;;;;33.58;18.63;;;;;;;;;;5000644;28;20033;-88
2023/06/29 05:32:22;;;;;;;35.35;18.17;;;;;;;;;;4991172;28;20038;-88
2023/06/29 05:34:57;;;;;;;40.53;19.48;;;;;;;;;;4988185;28;20411;-87
2023/06/29 05:37:40;;;;;;;42.55;18.20;;;;;;;;;;5012076;28;20040;-87
2023/06/29 05:40:11;;;;;;;36.80;18.60;;;;;;;;;;4998635;28;20044;-87
2023/06/29 05:42:38;;;;;;;37.63;19.23;;;;;;;;;;5000651;28;20391;-87
2023/06/29 05:45:05;;;;;;;38.92;18.58;;;;;;;;;;5007026;28;20060;-87
2023/06/29 05:47:32;;;;;;;41.83;19.10;;;;;;;;;;5002032;28;20062;-88
2023/06/29 05:50:05;;;;;;;37.30;18.58;;;;;;;;;;4977291;28;20450;-85
2023/06/29 05:52:33;;;;;;;35.00;18.15;;;;;;;;;;4983252;28;20034;-85
2023/06/29 05:54:59;;;;;;;33.92;17.75;;;;;;;;;;4973615;28;20025;-86
2023/06/29 05:57:25;;;;;;;36.25;18.00;;;;;;;;;;4954807;28;20048;-85
2023/06/29 05:59:51;;;;;;;32.70;16.55;;;;;;;;;;4955224;28;20422;-85
2023/06/29 06:02:17;;;;;;;37.78;17.17;;;;;;;;;;4968747;28;20127;-86
2023/06/29 06:04:43;;;;;;;34.55;17.10;;;;;;;;;;4971924;28;20045;-86
2023/06/29 06:07:10;;;;;;;37.47;18.30;;;;;;;;;;4951736;28;20154;-86
2023/06/29 06:09:36;;;;;;;33.03;16.45;;;;;;;;;;4984707;28;20035;-86
2023/06/29 06:12:05;;;;;;;33.75;17.98;;;;;;;;;;4965419;28;20030;-85
2023/06/29 06:14:31;;;;;;;37.53;17.85;;;;;;;;;;4955114;28;20062;-86
2023/06/29 06:16:57;;;;;;;31.52;16.95;;;;;;;;;;4986857;28;20630;-86
2023/06/29 06:19:23;;;;;;;31.23;17.27;;;;;;;;;;4966737;28;20137;-87
2023/06/29 06:21:49;;;;;;;31.67;15.73;;;;;;;;;;4944979;28;20057;-86
2023/06/29 06:24:15;;;;;;;31.25;16.35;;;;;;;;;;4951586;28;20509;-86
2023/06/29 06:26:42;;;;;;;35.47;17.95;;;;;;;;;;4971731;28;20090;-86
2023/06/29 06:29:08;;;;;;;33.13;17.15;;;;;;;;;;4951900;28;20589;-86
2023/06/29 06:31:34;;;;;;;37.33;17.08;;;;;;;;;;4965178;28;20406;-86
2023/06/29 06:34:00;;;;;;;38.55;17.55;;;;;;;;;;4956723;28;20039;-87
2023/06/29 06:36:30;;;;;;;37.97;18.35;;;;;;;;;;4961470;28;20034;-87
2023/06/29 06:38:56;;;;;;;37.15;16.13;;;;;;;;;;4974227;28;20038;-86
2023/06/29 06:41:30;;;;;;;37.88;17.63;;;;;;;;;;4954916;28;20261;-86
2023/06/29 06:43:57;;;;;;;36.60;17.40;;;;;;;;;;4968072;28;20023;-87
2023/06/29 06:46:23;;;;;;;35.97;17.80;;;;;;;;;;4948378;28;20026;-86
2023/06/29 06:48:56;;;;;;;35.08;17.30;;;;;;;;;;4949935;28;20607;-86
2023/06/29 06:51:22;;;;;;;33.47;16.95;;;;;;;;;;4994474;28;20030;-86
2023/06/29 06:53:48;;;;;;;35.80;17.77;;;;;;;;;;4991174;28;20254;-87
2023/06/29 06:56:14;;;;;;;33.30;17.77;;;;;;;;;;4976171;28;20109;-86
2023/06/29 06:58:40;;;;;;;33.15;17.27;;;;;;;;;;4993204;28;20719;-86
2023/06/29 07:01:07;;;;;;;32.88;17.50;;;;;;;;;;4975414;28;20471;-86
2023/06/29 07:03:36;;;;;;;38.13;17.70;;;;;;;;;;4985712;28;20389;-86
2023/06/29 07:06:05;;;;;;;37.40;16.90;;;;;;;;;;4975803;28;20532;-86
2023/06/29 07:08:32;;;;;;;31.02;17.25;;;;;;;;;;4971798;28;20029;-87
2023/06/29 07:10:58;;;;;;;37.47;18.90;;;;;;;;;;4973208;28;20121;-86
2023/06/29 07:13:24;;;;;;;35.60;16.95;;;;;;;;;;4990470;28;20458;-86
2023/06/29 07:15:50;;;;;;;37.83;18.27;;;;;;;;;;4991959;28;20045;-86
2023/06/29 07:18:16;;;;;;;40.28;17.80;;;;;;;;;;4986768;28;20045;-87
2023/06/29 07:20:42;;;;;;;45.67;17.08;;;;;;;;;;4978732;28;20070;-87
2023/06/29 07:23:10;;;;;;;33.85;18.15;;;;;;;;;;4969601;28;20030;-87
2023/06/29 07:25:36;;;;;;;29.58;16.42;;;;;;;;;;5006233;28;20033;-86
2023/06/29 07:28:02;;;;;;;41.30;18.92;;;;;;;;;;4974147;28;20128;-87
2023/06/29 07:30:28;;;;;;;38.30;16.92;;;;;;;;;;4986914;28;20030;-86
2023/06/29 07:32:54;;;;;;;29.90;16.50;;;;;;;;;;4975923;28;20034;-87
2023/06/29 07:35:20;;;;;;;34.60;17.50;;;;;;;;;;4977338;28;20489;-86
2023/06/29 07:37:46;;;;;;;41.00;18.67;;;;;;;;;;4975968;28;20543;-88
2023/06/29 07:40:12;;;;;;;33.22;17.10;;;;;;;;;;4991496;28;20117;-87
2023/06/29 07:42:38;;;;;;;38.22;18.95;;;;;;;;;;4976394;28;20401;-86
2023/06/29 07:45:05;;;;;;;40.88;19.27;;;;;;;;;;5007797;28;20031;-87
2023/06/29 07:47:31;;;;;;;34.92;18.20;;;;;;;;;;4994022;28;20030;-86
2023/06/29 07:50:04;;;;;;;35.40;17.58;;;;;;;;;;4974036;28;20631;-87
2023/06/29 07:52:30;;;;;;;37.75;17.27;;;;;;;;;;4968985;28;20049;-87
2023/06/29 07:54:57;;;;;;;38.25;18.10;;;;;;;;;;4963044;28;20037;-87
2023/06/29 07:57:23;;;;;;;36.45;18.75;;;;;;;;;;4972590;28;20038;-86
2023/06/29 07:59:49;;;;;;;37.90;21.45;;;;;;;;;;4950742;28;20045;-87
2023/06/29 08:02:15;;;;;;;40.08;19.13;;;;;;;;;;4960252;28;20609;-87
2023/06/29 08:04:41;;;;;;;37.33;18.75;;;;;;;;;;4979539;28;20050;-87
2023/06/29 08:07:08;;;;;;;39.90;19.48;;;;;;;;;;4971468;28;20050;-86
2023/06/29 08:09:34;;;;;;;43.70;20.90;;;;;;;;;;4960080;28;20029;-87
2023/06/29 08:12:00;;;;;;;48.33;20.85;;;;;;;;;;4960199;28;20034;-86
2023/06/29 08:14:26;;;;;;;41.30;20.33;;;;;;;;;;4990902;28;20034;-87
2023/06/29 08:16:52;;;;;;;51.05;21.67;;;;;;;;;;4992776;28;20034;-88
2023/06/29 08:19:18;;;;;;;44.33;20.10;;;;;;;;;;4977599;28;20038;-86
2023/06/29 08:21:47;;;;;;;42.15;22.20;;;;;;;;;;4990392;28;20474;-87
2023/06/29 08:24:14;;;;;;;41.70;19.52;;;;;;;;;;4964259;28;20023;-87
2023/06/29 08:26:40;;;;;;;36.90;17.77;;;;;;;;;;4976071;28;20530;-87
2023/06/29 08:29:11;;;;;;;38.20;19.08;;;;;;;;;;4954342;28;20038;-88
2023/06/29 08:31:37;;;;;;;37.58;18.92;;;;;;;;;;4987566;28;20466;-87
2023/06/29 08:34:04;;;;;;;39.03;17.95;;;;;;;;;;4953616;28;20039;-87
2023/06/29 08:36:30;;;;;;;39.47;18.92;;;;;;;;;;4973395;28;20038;-87
2023/06/29 08:38:56;;;;;;;40.45;19.77;;;;;;;;;;4954174;28;20506;-87
2023/06/29 08:41:23;;;;;;;34.47;17.52;;;;;;;;;;4955785;28;20593;-87
2023/06/29 08:43:51;;;;;;;40.17;18.42;;;;;;;;;;4969824;28;20035;-87
2023/06/29 08:46:17;;;;;;;37.33;18.42;;;;;;;;;;4968845;28;20026;-87
2023/06/29 08:48:45;;;;;;;32.88;18.20;;;;;;;;;;4958203;28;20294;-87
2023/06/29 08:51:19;;;;;;;44.78;17.85;;;;;;;;;;4976466;28;20141;-86
2023/06/29 08:53:46;;;;;;;35.10;17.67;;;;;;;;;;4990061;28;20018;-87
2023/06/29 08:56:16;;;;;;;41.00;20.50;;;;;;;;;;4994875;28;20515;-87
2023/06/29 08:58:42;;;;;;;36.80;17.80;;;;;;;;;;4994014;28;20084;-87
2023/06/29 09:01:09;;;;;;;34.33;17.33;;;;;;;;;;4977362;28;20482;-87
2023/06/29 09:03:36;;;;;;;44.15;20.02;;;;;;;;;;4992533;28;20182;-87
2023/06/29 09:06:03;;;;;;;39.30;19.92;;;;;;;;;;4992475;28;20037;-87
2023/06/29 09:08:29;;;;;;;38.25;17.05;;;;;;;;;;4980596;28;20124;-86
2023/06/29 09:10:56;;;;;;;40.28;19.15;;;;;;;;;;4978936;28;20069;-87
2023/06/29 09:13:26;;;;;;;30.33;16.73;;;;;;;;;;4976359;28;20366;-88
2023/06/29 09:15:54;;;;;;;36.97;18.23;;;;;;;;;;4996015;28;20056;-87
2023/06/29 09:18:24;;;;;;;39.50;18.70;;;;;;;;;;4992546;28;20057;-87
2023/06/29 09:20:51;;;;;;;38.30;18.85;;;;;;;;;;4993627;28;20363;-87
2023/06/29 09:23:17;;;;;;;47.63;21.67;;;;;;;;;;4991137;28;20709;-86
2023/06/29 09:25:44;;;;;;;35.92;19.02;;;;;;;;;;4994074;28;20045;-87
2023/06/29 09:28:12;;;;;;;35.47;17.33;;;;;;;;;;4982908;28;20098;-87
2023/06/29 09:30:41;;;;;;;43.95;19.25;;;;;;;;;;4977233;28;20121;-86
2023/06/29 09:33:11;;;;;;;34.22;17.33;;;;;;;;;;4991956;28;20044;-87
2023/06/29 09:35:43;;;;;;;45.42;19.30;;;;;;;;;;4987447;28;20061;-86
2023/06/29 09:38:09;;;;;;;39.90;20.83;;;;;;;;;;5003070;28;20070;-86
2023/06/29 09:40:49;;;;;;;40.47;20.17;;;;;;;;;;4979784;28;20398;-87
2023/06/29 09:43:15;;;;;;;36.00;19.50;;;;;;;;;;5007874;28;20026;-87
2023/06/29 09:45:42;;;;;;;43.80;17.50;;;;;;;;;;4973606;28;20064;-87
2023/06/29 09:48:11;;;;;;;42.50;21.42;;;;;;;;;;4995338;28;20038;-86
2023/06/29 09:50:40;;;;;;;40.40;20.42;;;;;;;;;;4994265;28;20062;-86
2023/06/29 09:53:09;;;;;;;44.15;21.70;;;;;;;;;;4968123;28;20097;-86
2023/06/29 09:55:38;;;;;;;44.38;20.17;;;;;;;;;;4988016;28;20034;-87
2023/06/29 09:58:04;;;;;;;40.55;20.02;;;;;;;;;;4991908;28;20037;-86
2023/06/29 10:00:32;;;;;;;40.67;20.67;;;;;;;;;;4991893;28;20057;-86
2023/06/29 10:02:59;;;;;;;47.65;21.83;;;;;;;;;;4982263;28;20039;-86
2023/06/29 10:05:25;;;;;;;44.88;21.65;;;;;;;;;;4991510;28;20386;-87
2023/06/29 10:07:53;;;;;;;36.72;19.35;;;;;;;;;;5000928;28;20026;-86
2023/06/29 10:10:20;;;;;;;47.35;22.40;;;;;;;;;;4993852;28;20042;-86
2023/06/29 10:12:49;;;;;;;39.88;21.45;;;;;;;;;;5007890;28;20027;-86
2023/06/29 10:15:16;;;;;;;39.75;18.92;;;;;;;;;;5002370;28;20041;-86
2023/06/29 10:17:47;;;;;;;38.38;20.40;;;;;;;;;;4977868;28;20037;-86
2023/06/29 10:20:14;;;;;;;42.45;21.55;;;;;;;;;;5001907;28;20493;-87
2023/06/29 10:22:41;;;;;;;41.83;21.48;;;;;;;;;;4997033;28;20509;-87
2023/06/29 10:25:10;;;;;;;43.38;22.27;;;;;;;;;;4992376;28;20558;-87
2023/06/29 10:27:37;;;;;;;39.80;21.75;;;;;;;;;;4994326;28;20473;-87
2023/06/29 10:30:04;;;;;;;40.22;19.98;;;;;;;;;;4997990;28;20038;-87
2023/06/29 10:32:37;;;;;;;37.15;20.83;;;;;;;;;;4986560;28;20030;-87
2023/06/29 10:35:13;;;;;;;38.25;19.10;;;;;;;;;;5003221;28;20038;-87
2023/06/29 10:37:39;;;;;;;;;;;;;;;;;;4991778;28;20033;-87
2023/06/29 10:40:26;;;;;;;42.05;19.88;;;;;;;;;;5001575;28;19913;-87
2023/06/29 10:42:56;;;;;;;39.58;19.55;;;;;;;;;;4987332;28;20069;-87
2023/06/29 10:45:22;;;;;;;35.97;20.83;;;;;;;;;;4969230;28;20030;-87
2023/06/29 10:47:54;;;;;;;41.20;18.70;;;;;;;;;;4986747;28;20030;-88
2023/06/29 10:50:24;;;;;;;37.63;21.95;;;;;;;;;;4990037;28;20050;-88
2023/06/29 10:53:03;;;;;;;42.28;23.75;;;;;;;;;;4971675;28;20102;-87
2023/06/29 10:55:39;;;;;;;43.88;21.88;;;;;;;;;;4988313;28;20311;-87
2023/06/29 10:58:14;;;;;;;34.08;20.45;;;;;;;;;;4989432;28;20042;-87
2023/06/29 11:00:40;;;;;;;37.42;19.77;;;;;;;;;;4990212;28;20524;-86
2023/06/29 11:03:08;;;;;;;38.50;18.42;;;;;;;;;;5008640;28;20026;-86
2023/06/29 11:05:34;;;;;;;41.40;19.88;;;;;;;;;;4989350;28;20486;-87
2023/06/29 11:08:00;;;;;;;34.47;17.77;;;;;;;;;;4978046;28;20026;-87
2023/06/29 11:10:26;;;;;;;38.97;20.17;;;;;;;;;;4992106;28;20390;-87
2023/06/29 11:12:59;;;;;;;44.15;18.92;;;;;;;;;;4990925;28;20576;-86
2023/06/29 11:15:26;;;;;;;35.53;17.45;;;;;;;;;;4992742;28;21253;-87
2023/06/29 11:17:54;;;;;;;35.60;19.67;;;;;;;;;;4986617;28;20060;-86
2023/06/29 11:20:21;;;;;;;37.10;19.15;;;;;;;;;;4974456;28;20042;-88
2023/06/29 11:22:51;;;;;;;36.38;18.00;;;;;;;;;;4989030;28;20070;-87
2023/06/29 11:25:17;;;;;;;35.15;19.45;;;;;;;;;;4980152;28;20038;-87
2023/06/29 11:27:47;;;;;;;36.53;20.10;;;;;;;;;;4987301;28;20033;-87
2023/06/29 11:30:13;;;;;;;43.88;18.58;;;;;;;;;;4993139;28;20046;-87
2023/06/29 11:32:41;;;;;;;40.22;19.90;;;;;;;;;;4987482;28;20241;-87
2023/06/29 11:35:09;;;;;;;29.80;16.15;;;;;;;;;;5006609;28;20035;-87
2023/06/29 11:37:37;;;;;;;33.53;16.20;;;;;;;;;;4990450;28;20026;-87
2023/06/29 11:40:10;;;;;;;35.80;18.75;;;;;;;;;;4989366;28;20418;-87
2023/06/29 11:42:39;;;;;;;34.05;19.05;;;;;;;;;;4982756;28;20085;-87
2023/06/29 11:45:09;;;;;;;37.67;18.30;;;;;;;;;;4992478;28;20030;-87
2023/06/29 11:47:35;;;;;;;39.10;17.17;;;;;;;;;;4975269;28;20109;-87
2023/06/29 11:50:02;;;;;;;36.35;19.67;;;;;;;;;;4981631;28;20058;-87
2023/06/29 11:52:30;;;;;;;34.47;17.52;;;;;;;;;;4995780;28;20053;-87
2023/06/29 11:54:57;;;;;;;38.42;19.48;;;;;;;;;;4984391;28;20038;-86
2023/06/29 11:57:23;;;;;;;37.60;19.25;;;;;;;;;;4980027;28;20552;-87
2023/06/29 11:59:49;;;;;;;38.05;20.20;;;;;;;;;;4993252;28;20852;-87
2023/06/29 12:02:15;;;;;;;39.45;20.83;;;;;;;;;;4999286;28;20457;-87
2023/06/29 12:04:55;;;;;;;36.15;20.52;;;;;;;;;;4988732;28;20156;-87
2023/06/29 12:07:42;;;;;;;40.85;21.48;;;;;;;;;;5010260;28;20033;-87
2023/06/29 12:10:09;;;;;;;39.42;20.77;;;;;;;;;;4991725;28;20030;-87
2023/06/29 12:12:39;;;;;;;45.97;23.77;;;;;;;;;;4980032;28;20286;-87
2023/06/29 12:15:12;;;;;;;41.60;21.58;;;;;;;;;;5012694;28;20509;-87
2023/06/29 12:17:38;;;;;;;46.47;24.63;;;;;;;;;;4997788;28;20050;-87
2023/06/29 12:20:24;;;;;;;46.55;23.60;;;;;;;;;;4980278;28;20704;-87
2023/06/29 12:22:54;;;;;;;45.45;24.95;;;;;;;;;;4983305;28;20058;-87
2023/06/29 12:25:21;;;;;;;47.72;24.55;;;;;;;;;;4996841;28;20018;-87
2023/06/29 12:27:48;;;;;;;38.70;21.70;;;;;;;;;;5003385;28;20045;-86
2023/06/29 12:30:15;;;;;;;40.08;21.10;;;;;;;;;;5011788;28;20446;-87
2023/06/29 12:32:42;;;;;;;41.92;20.80;;;;;;;;;;4990690;28;20350;-88
2023/06/29 12:35:08;;;;;;;38.70;19.60;;;;;;;;;;5007110;28;20034;-88
2023/06/29 12:37:35;;;;;;;43.40;23.63;;;;;;;;;;5012620;28;20087;-87
2023/06/29 12:40:04;;;;;;;42.58;22.10;;;;;;;;;;4980009;28;20033;-87
2023/06/29 12:42:31;;;;;;;43.72;22.27;;;;;;;;;;4994136;28;20030;-87
2023/06/29 12:44:57;;;;;;;37.47;20.02;;;;;;;;;;4992094;28;20018;-87
2023/06/29 12:47:23;;;;;;;48.83;24.08;;;;;;;;;;5009154;28;20061;-87
2023/06/29 12:49:50;;;;;;;43.05;22.52;;;;;;;;;;4990457;28;20452;-88
2023/06/29 12:52:21;;;;;;;40.92;22.02;;;;;;;;;;4989900;28;20052;-87
2023/06/29 12:54:47;;;;;;;40.28;23.85;;;;;;;;;;5005841;28;20033;-87
2023/06/29 12:57:25;;;;;;;40.83;20.38;;;;;;;;;;4992640;28;20040;-88
2023/06/29 12:59:52;;;;;;;42.85;23.30;;;;;;;;;;4992151;28;20077;-87
2023/06/29 13:02:18;;;;;;;48.65;25.00;;;;;;;;;;4993463;28;20091;-88
2023/06/29 13:04:44;;;;;;;48.53;23.17;;;;;;;;;;4974588;28;20046;-87
2023/06/29 13:07:11;;;;;;;42.78;21.73;;;;;;;;;;4972283;28;20167;-88
2023/06/29 13:09:38;;;;;;;45.17;24.48;;;;;;;;;;4973968;28;20131;-87
2023/06/29 13:12:04;;;;;;;43.50;22.10;;;;;;;;;;4992393;28;20514;-87
2023/06/29 13:14:31;;;;;;;42.35;22.27;;;;;;;;;;4994403;28;20048;-87
2023/06/29 13:16:58;;;;;;;43.30;23.00;;;;;;;;;;4995074;28;20404;-88
2023/06/29 13:19:25;;;;;;;44.83;22.02;;;;;;;;;;4998064;28;20073;-88
2023/06/29 13:21:51;;;;;;;46.42;17.83;;;;;;;;;;4986995;28;20096;-88
2023/06/29 13:24:17;;;;;;;49.88;19.98;;;;;;;;;;4996225;28;20114;-88
2023/06/29 13:26:43;;;;;;;41.75;20.88;;;;;;;;;;5003553;28;20084;-88
2023/06/29 13:29:10;;;;;;;40.28;21.02;;;;;;;;;;4992093;28;20034;-88
2023/06/29 13:31:36;;;;;;;42.28;21.45;;;;;;;;;;5008557;28;20032;-87
2023/06/29 13:34:03;;;;;;;37.63;20.50;;;;;;;;;;4989472;28;20355;-87
2023/06/29 13:36:29;;;;;;;43.05;19.88;;;;;;;;;;4998515;28;20029;-87
2023/06/29 13:38:55;;;;;;;44.08;20.75;;;;;;;;;;5010386;28;20089;-87
2023/06/29 13:41:51;;;;;;;40.80;22.27;;;;;;;;;;4970795;28;20502;-87
2023/06/29 13:44:17;;;;;;;42.87;22.10;;;;;;;;;;4987498;28;20505;-87
2023/06/29 13:46:47;;;;;;;44.25;19.10;;;;;;;;;;5004501;28;20029;-88
2023/06/29 13:49:15;;;;;;;47.63;16.50;;;;;;;;;;4992278;28;20172;-87
2023/06/29 13:51:41;;;;;;;32.53;13.77;;;;;;;;;;4974625;28;20445;-87
2023/06/29 13:54:07;;;;;;;36.05;16.92;;;;;;;;;;4956007;28;20404;-87
2023/06/29 13:56:37;;;;;;;44.33;16.83;;;;;;;;;;4986964;28;20034;-87
2023/06/29 13:59:06;;;;;;;45.70;17.42;;;;;;;;;;4985823;28;20031;-87
2023/06/29 14:01:34;;;;;;;45.22;19.08;;;;;;;;;;4981847;28;20288;-86
2023/06/29 14:04:01;;;;;;;44.38;19.75;;;;;;;;;;4966055;28;20034;-87
2023/06/29 14:06:27;;;;;;;41.25;19.13;;;;;;;;;;4953212;28;20032;-87
2023/06/29 14:08:53;;;;;;;54.92;21.35;;;;;;;;;;4966886;28;20042;-87
2023/06/29 14:11:19;;;;;;;40.00;21.20;;;;;;;;;;4972376;28;20044;-87
2023/06/29 14:13:45;;;;;;;42.25;21.95;;;;;;;;;;4969568;28;20026;-87
2023/06/29 14:16:11;;;;;;;47.38;22.52;;;;;;;;;;4987054;28;20037;-87
2023/06/29 14:18:37;;;;;;;49.35;22.55;;;;;;;;;;4959986;28;20034;-88
2023/06/29 14:21:03;;;;;;;48.42;22.42;;;;;;;;;;4979419;28;20041;-86
2023/06/29 14:23:31;;;;;;;50.20;23.40;;;;;;;;;;4955799;28;20033;-86
2023/06/29 14:25:58;;;;;;;35.03;16.83;;;;;;;;;;4956435;28;20045;-87
2023/06/29 14:28:24;;;;;;;36.65;16.65;;;;;;;;;;4973126;28;20034;-86
2023/06/29 14:30:50;;;;;;;36.38;17.92;;;;;;;;;;4954946;28;20042;-88
2023/06/29 14:33:17;;;;;;;41.03;20.42;;;;;;;;;;4954147;28;20495;-87